Overview Statistics Trail Chart Weather Telemetry Raw packets
 

This is the latest recevied packets stored in our database for station/object DL3MC-20. If no packets are shown the sender has not sent any packets the latest 24 hours.

If you compare the raw packets with similar data from other websites it may differ (especially the path), the reason is that we are not collecting packets from the same APRS-IS servers. Each APRS-IS server performes duplicate filtering, and which packet that is considered to be a duplicate may differ depending on which APRS-IS server you receive your data from.

<< 1 2 3 >>

1777999806: DL3MC-20>APRSMC,TCPIP*,qAR,DG3FAW-12:T#012,992.4,24.6,36.2,1008.1,0.0,00000000

1777999806: DL3MC-20>APRSMC,TCPIP*,qAR,DG3FAW-12:!5018.77N/00900.13E&DL3MC Gateway#DL3MC Gateway/B=100/A=000449

1777999804: DL3MC-20>APRSGW,TCPIP*,qAR,DL3MC-20:T#253,992.4,24.6,36.2,1008.1,0.0,00000000

1777999804: DL3MC-20>APRSGW,TCPIP*,qAR,DL3MC-20:!5018.77N/00900.13E&DL3MC Gateway#DL3MC Gateway/B=100/A=000449

1777997989: DL3MC-20>APRSGW,TCPIP*,qAR,DL3MC-20:T#252,992.6,25.5,34.5,1008.2,0.0,00000000

1777997989: DL3MC-20>APRSGW,TCPIP*,qAR,DL3MC-20:!5018.77N/00900.13E&DL3MC Gateway#DL3MC Gateway/A=000449

1777996183: DL3MC-20>APRSMC,TCPIP*,qAR,DH1TZ-12::DL3MC-20 :PARM.Press,Temp.in,Hum,QNH,Temp.out,track,-,-,-,-,-,-,-

1777996183: DL3MC-20>APRSMC,TCPIP*,qAR,DH1TZ-12:T#011,992.4,26.4,33.5,1008.0,0.0,00000000

1777996183: DL3MC-20>APRSMC,TCPIP*,qAR,DH1TZ-12::DL3MC-20 :UNIT.hPa,C deg,%,hPa,C deg,Y/N,O/N,O/N,O/N,O/N,O/N,O/N,O/N

1777996183: DL3MC-20>APRSMC,TCPIP*,qAR,DH1TZ-12::DL3MC-20 :EQNS.0,1,0,0,1,0,0,1,0,0,1,0,0,1,0

1777996183: DL3MC-20>APRSMC,TCPIP*,qAR,DH1TZ-12:!5018.77N/00900.13E&DL3MC Gateway#DL3MC Gateway/B=100/A=000449

1777996174: DL3MC-20>APRSGW,TCPIP*,qAR,DL3MC-20:T#251,992.4,26.4,33.5,1008.0,0.0,00000000

1777996174: DL3MC-20>APRSGW,TCPIP*,qAR,DL3MC-20::DL3MC-20 :EQNS.0,1,0,0,1,0,0,1,0,0,1,0,0,1,0

1777996174: DL3MC-20>APRSGW,TCPIP*,qAR,DL3MC-20::DL3MC-20 :PARM.Press,Temp.in,Hum,QNH,Temp.out,track,-,-,-,-,-,-,-

1777996174: DL3MC-20>APRSGW,TCPIP*,qAR,DL3MC-20:!5018.77N/00900.13E&DL3MC Gateway#DL3MC Gateway/B=100/A=000449

1777996174: DL3MC-20>APRSGW,TCPIP*,qAR,DL3MC-20::DL3MC-20 :UNIT.hPa,C deg,%,hPa,C deg,Y/N,O/N,O/N,O/N,O/N,O/N,O/N,O/N

1777994359: DL3MC-20>APRSGW,TCPIP*,qAR,DL3MC-20:T#250,992.4,27.0,33.3,1007.9,0.0,00000000

1777994359: DL3MC-20>APRSGW,TCPIP*,qAR,DL3MC-20:!5018.77N/00900.13E&DL3MC Gateway#DL3MC Gateway/B=100/A=000449

1777992544: DL3MC-20>APRSGW,TCPIP*,qAR,DL3MC-20:T#249,992.3,28.9,30.4,1007.8,0.0,00000000

1777992544: DL3MC-20>APRSGW,TCPIP*,qAR,DL3MC-20:!5018.77N/00900.13E&DL3MC Gateway#DL3MC Gateway/B=100/A=000449

1777990735: DL3MC-20>APRSMC,TCPIP*,qAR,DH1TZ-12:T#010,991.7,30.2,27.2,1007.0,0.0,00000000

1777990735: DL3MC-20>APRSMC,TCPIP*,qAR,DH1TZ-12:!5018.77N/00900.13E&DL3MC Gateway#DL3MC Gateway/B=097/A=000449

1777990729: DL3MC-20>APRSGW,TCPIP*,qAR,DL3MC-20:T#248,991.7,30.2,27.2,1007.0,0.0,00000000

1777990729: DL3MC-20>APRSGW,TCPIP*,qAR,DL3MC-20:!5018.77N/00900.13E&DL3MC Gateway#DL3MC Gateway/B=097/A=000449

1777988919: DL3MC-20>APRSMC,TCPIP*,qAR,DH1TZ-12:T#009,991.8,30.9,27.0,1007.2,0.0,00000000